CheckWX is a tool to help pilots better visualize weather data.  It is not intended as a substitute for an official pre-flight weather briefing.

07:04:14 UTC

OIFM TAF
Esfahan Shahid Beheshti International Airport
Isfahan, Iran
TAF OIFM 190530Z 1906/2012 30010KT 7000 NSC TEMPO 1918/1921 23018KT 6000 FEW030TCU FEW035 SCT100 BECMG 2002/2004 4000 HZ BECMG 2006/2008 7000 NSC

Jun-19@
06:00 UTC

Jun-19 @ 06:00 UTC

Jun-20@
02:00 UTC

Jun-20 @ 02:00 UTC

TAF OIFM 190530Z 1906/2012 30010KT 7000 NSC
Wind
  • 300° at 10 KTS
Cloud Levels
  • No significant clouds

Jun-19@
18:00 UTC

Jun-19 @ 18:00 UTC

Jun-19@
21:00 UTC

Jun-19 @ 21:00 UTC

TEMPO 1918/1921 23018KT 6000 FEW030TCU FEW035 SCT100

Temporary

Temporary Changes expected for less than half the time period

Wind
  • 230° at 18 KTS
Cloud Levels
  • Few at 3,000' AGL
  • Few at 3,500' AGL
  • Scattered at 10,000' AGL

Jun-20@
02:00 UTC

Jun-20 @ 02:00 UTC

Jun-20@
06:00 UTC

Jun-20 @ 06:00 UTC

BECMG 2002/2004 4000 HZ

Becoming

Becoming Conditions expected by Thu, Jun 20, 2019 @ 04:00 UTC

Wind
  • 300° at 10 KTS
Conditions
Haze
Cloud Levels
  • No significant clouds

Jun-20@
06:00 UTC

Jun-20 @ 06:00 UTC

Jun-20@
12:00 UTC

Jun-20 @ 12:00 UTC

BECMG 2006/2008 7000 NSC

Becoming

Becoming Conditions expected by Thu, Jun 20, 2019 @ 08:00 UTC

Wind
  • 300° at 10 KTS
Conditions
Haze
Cloud Levels
  • No significant clouds